sensor_id;sensor_type;location;lat;lon;timestamp;temperature;humidity
5560;DHT22;2803;47.916;8.074;2023-08-24T00:00:33;20.00;99.90
5560;DHT22;2803;47.916;8.074;2023-08-24T00:03:00;20.00;99.90
5560;DHT22;2803;47.916;8.074;2023-08-24T00:05:28;20.10;99.90
5560;DHT22;2803;47.916;8.074;2023-08-24T00:07:55;20.30;99.90
5560;DHT22;2803;47.916;8.074;2023-08-24T00:10:23;20.40;99.90
5560;DHT22;2803;47.916;8.074;2023-08-24T00:12:50;20.70;99.90
5560;DHT22;2803;47.916;8.074;2023-08-24T00:15:17;20.30;99.90
5560;DHT22;2803;47.916;8.074;2023-08-24T00:17:43;20.40;99.90
5560;DHT22;2803;47.916;8.074;2023-08-24T00:20:10;20.40;99.90
5560;DHT22;2803;47.916;8.074;2023-08-24T00:22:38;20.40;99.90
5560;DHT22;2803;47.916;8.074;2023-08-24T00:25:06;20.60;99.90
5560;DHT22;2803;47.916;8.074;2023-08-24T00:27:34;20.90;99.90
5560;DHT22;2803;47.916;8.074;2023-08-24T00:30:02;21.00;99.90
5560;DHT22;2803;47.916;8.074;2023-08-24T00:32:29;21.10;99.90
5560;DHT22;2803;47.916;8.074;2023-08-24T00:35:05;21.10;99.90
5560;DHT22;2803;47.916;8.074;2023-08-24T00:37:33;20.70;99.90
5560;DHT22;2803;47.916;8.074;2023-08-24T00:40:00;20.30;99.90
5560;DHT22;2803;47.916;8.074;2023-08-24T00:42:30;20.60;99.90
5560;DHT22;2803;47.916;8.074;2023-08-24T00:44:58;20.20;99.90
5560;DHT22;2803;47.916;8.074;2023-08-24T00:47:25;20.00;99.90
5560;DHT22;2803;47.916;8.074;2023-08-24T00:49:52;19.90;99.90
5560;DHT22;2803;47.916;8.074;2023-08-24T00:52:19;20.20;99.90
5560;DHT22;2803;47.916;8.074;2023-08-24T00:54:45;20.50;99.90
5560;DHT22;2803;47.916;8.074;2023-08-24T00:57:13;20.70;99.90
5560;DHT22;2803;47.916;8.074;2023-08-24T00:59:40;21.00;99.90
5560;DHT22;2803;47.916;8.074;2023-08-24T01:02:08;20.90;99.90
5560;DHT22;2803;47.916;8.074;2023-08-24T01:04:36;20.60;99.90
5560;DHT22;2803;47.916;8.074;2023-08-24T01:07:03;20.80;99.90
5560;DHT22;2803;47.916;8.074;2023-08-24T01:09:30;20.40;99.90
5560;DHT22;2803;47.916;8.074;2023-08-24T01:12:00;20.30;99.90
5560;DHT22;2803;47.916;8.074;2023-08-24T01:14:38;20.40;99.90
5560;DHT22;2803;47.916;8.074;2023-08-24T01:17:09;20.60;99.90
5560;DHT22;2803;47.916;8.074;2023-08-24T01:19:39;20.50;99.90
5560;DHT22;2803;47.916;8.074;2023-08-24T01:22:18;20.40;99.90
5560;DHT22;2803;47.916;8.074;2023-08-24T01:24:53;20.00;99.90
5560;DHT22;2803;47.916;8.074;2023-08-24T01:27:21;20.30;99.90
5560;DHT22;2803;47.916;8.074;2023-08-24T01:29:49;20.30;99.90
5560;DHT22;2803;47.916;8.074;2023-08-24T01:32:18;19.90;99.90
5560;DHT22;2803;47.916;8.074;2023-08-24T01:34:44;19.60;99.90
5560;DHT22;2803;47.916;8.074;2023-08-24T01:37:11;19.70;99.90
5560;DHT22;2803;47.916;8.074;2023-08-24T01:39:44;19.80;99.90
5560;DHT22;2803;47.916;8.074;2023-08-24T01:42:17;19.80;99.90
5560;DHT22;2803;47.916;8.074;2023-08-24T01:44:49;19.70;99.90
5560;DHT22;2803;47.916;8.074;2023-08-24T01:47:17;19.50;99.90
5560;DHT22;2803;47.916;8.074;2023-08-24T01:49:45;19.50;99.90
5560;DHT22;2803;47.916;8.074;2023-08-24T01:52:12;19.40;99.90
5560;DHT22;2803;47.916;8.074;2023-08-24T01:54:40;19.50;99.90
5560;DHT22;2803;47.916;8.074;2023-08-24T01:57:07;19.50;99.90
5560;DHT22;2803;47.916;8.074;2023-08-24T01:59:33;19.40;99.90
5560;DHT22;2803;47.916;8.074;2023-08-24T02:02:01;19.40;99.90
5560;DHT22;2803;47.916;8.074;2023-08-24T02:04:28;19.80;99.90
5560;DHT22;2803;47.916;8.074;2023-08-24T02:06:55;19.70;99.90
5560;DHT22;2803;47.916;8.074;2023-08-24T02:09:21;20.10;99.90
5560;DHT22;2803;47.916;8.074;2023-08-24T02:11:48;20.20;99.90
5560;DHT22;2803;47.916;8.074;2023-08-24T02:14:15;20.00;99.90
5560;DHT22;2803;47.916;8.074;2023-08-24T02:16:41;19.90;99.90
5560;DHT22;2803;47.916;8.074;2023-08-24T02:19:09;19.70;99.90
5560;DHT22;2803;47.916;8.074;2023-08-24T02:21:36;20.20;99.90
5560;DHT22;2803;47.916;8.074;2023-08-24T02:24:03;20.40;99.90
5560;DHT22;2803;47.916;8.074;2023-08-24T02:26:30;20.70;99.90
5560;DHT22;2803;47.916;8.074;2023-08-24T02:28:57;20.80;99.90
5560;DHT22;2803;47.916;8.074;2023-08-24T02:31:24;20.70;99.90
5560;DHT22;2803;47.916;8.074;2023-08-24T02:33:51;20.60;99.90
5560;DHT22;2803;47.916;8.074;2023-08-24T02:36:19;20.60;99.90
5560;DHT22;2803;47.916;8.074;2023-08-24T02:38:46;20.90;99.90
5560;DHT22;2803;47.916;8.074;2023-08-24T02:41:13;20.90;99.90
5560;DHT22;2803;47.916;8.074;2023-08-24T02:43:40;21.00;99.90
5560;DHT22;2803;47.916;8.074;2023-08-24T02:46:08;21.30;99.90
5560;DHT22;2803;47.916;8.074;2023-08-24T02:48:35;21.20;99.90
5560;DHT22;2803;47.916;8.074;2023-08-24T02:51:03;21.50;99.90
5560;DHT22;2803;47.916;8.074;2023-08-24T02:53:32;21.20;99.90
5560;DHT22;2803;47.916;8.074;2023-08-24T02:55:58;21.50;99.90
5560;DHT22;2803;47.916;8.074;2023-08-24T02:58:25;21.60;99.90
5560;DHT22;2803;47.916;8.074;2023-08-24T03:00:53;21.70;99.90
5560;DHT22;2803;47.916;8.074;2023-08-24T03:03:19;21.70;99.90
5560;DHT22;2803;47.916;8.074;2023-08-24T03:05:54;21.40;99.90
5560;DHT22;2803;47.916;8.074;2023-08-24T03:08:21;21.80;99.90
5560;DHT22;2803;47.916;8.074;2023-08-24T03:10:49;22.10;99.90
5560;DHT22;2803;47.916;8.074;2023-08-24T03:13:16;22.10;99.90
5560;DHT22;2803;47.916;8.074;2023-08-24T03:15:42;22.60;99.90
5560;DHT22;2803;47.916;8.074;2023-08-24T03:18:10;22.50;99.90
5560;DHT22;2803;47.916;8.074;2023-08-24T03:20:37;22.20;99.90
5560;DHT22;2803;47.916;8.074;2023-08-24T03:23:03;21.70;99.90
5560;DHT22;2803;47.916;8.074;2023-08-24T03:25:31;21.10;99.90
5560;DHT22;2803;47.916;8.074;2023-08-24T03:27:59;20.90;99.90
5560;DHT22;2803;47.916;8.074;2023-08-24T03:30:25;21.50;99.90
5560;DHT22;2803;47.916;8.074;2023-08-24T03:32:52;21.90;99.90
5560;DHT22;2803;47.916;8.074;2023-08-24T03:35:19;21.80;99.90
5560;DHT22;2803;47.916;8.074;2023-08-24T03:37:45;21.60;99.90
5560;DHT22;2803;47.916;8.074;2023-08-24T03:40:12;21.30;99.90
5560;DHT22;2803;47.916;8.074;2023-08-24T03:42:39;21.20;99.90
5560;DHT22;2803;47.916;8.074;2023-08-24T03:45:08;21.10;99.90
5560;DHT22;2803;47.916;8.074;2023-08-24T03:47:34;21.00;99.90
5560;DHT22;2803;47.916;8.074;2023-08-24T03:50:01;20.80;99.90
5560;DHT22;2803;47.916;8.074;2023-08-24T03:52:28;20.70;99.90
5560;DHT22;2803;47.916;8.074;2023-08-24T03:54:54;20.50;99.90
5560;DHT22;2803;47.916;8.074;2023-08-24T03:57:21;20.90;99.90
5560;DHT22;2803;47.916;8.074;2023-08-24T03:59:47;20.70;99.90
5560;DHT22;2803;47.916;8.074;2023-08-24T04:02:16;20.60;99.90
5560;DHT22;2803;47.916;8.074;2023-08-24T04:04:42;20.70;99.90
5560;DHT22;2803;47.916;8.074;2023-08-24T04:07:09;20.60;99.90
5560;DHT22;2803;47.916;8.074;2023-08-24T04:09:36;20.60;99.90
5560;DHT22;2803;47.916;8.074;2023-08-24T04:12:02;20.20;99.90
5560;DHT22;2803;47.916;8.074;2023-08-24T04:14:29;20.20;99.90
5560;DHT22;2803;47.916;8.074;2023-08-24T04:16:56;20.30;99.90
5560;DHT22;2803;47.916;8.074;2023-08-24T04:19:24;20.40;99.90
5560;DHT22;2803;47.916;8.074;2023-08-24T04:21:50;20.10;99.90
5560;DHT22;2803;47.916;8.074;2023-08-24T04:24:17;20.30;99.90
5560;DHT22;2803;47.916;8.074;2023-08-24T04:26:43;20.20;99.90
5560;DHT22;2803;47.916;8.074;2023-08-24T04:29:10;19.60;99.90
5560;DHT22;2803;47.916;8.074;2023-08-24T04:31:36;19.30;99.90
5560;DHT22;2803;47.916;8.074;2023-08-24T04:34:06;19.50;99.90
5560;DHT22;2803;47.916;8.074;2023-08-24T04:36:34;19.60;99.90
5560;DHT22;2803;47.916;8.074;2023-08-24T04:39:00;19.80;99.90
5560;DHT22;2803;47.916;8.074;2023-08-24T04:41:27;19.70;99.90
5560;DHT22;2803;47.916;8.074;2023-08-24T04:43:54;19.90;99.90
5560;DHT22;2803;47.916;8.074;2023-08-24T04:46:21;20.20;99.90
5560;DHT22;2803;47.916;8.074;2023-08-24T04:48:47;20.00;99.90
5560;DHT22;2803;47.916;8.074;2023-08-24T04:51:14;19.90;99.90
5560;DHT22;2803;47.916;8.074;2023-08-24T04:53:42;19.20;99.90
5560;DHT22;2803;47.916;8.074;2023-08-24T04:56:09;19.10;99.90
5560;DHT22;2803;47.916;8.074;2023-08-24T04:58:35;19.10;99.90
5560;DHT22;2803;47.916;8.074;2023-08-24T05:01:02;19.00;99.90
5560;DHT22;2803;47.916;8.074;2023-08-24T05:03:29;19.10;99.90
5560;DHT22;2803;47.916;8.074;2023-08-24T05:05:56;19.30;99.90
5560;DHT22;2803;47.916;8.074;2023-08-24T05:08:22;19.00;99.90
5560;DHT22;2803;47.916;8.074;2023-08-24T05:10:50;19.10;99.90
5560;DHT22;2803;47.916;8.074;2023-08-24T05:13:18;19.40;99.90
5560;DHT22;2803;47.916;8.074;2023-08-24T05:15:46;19.30;99.90
5560;DHT22;2803;47.916;8.074;2023-08-24T05:18:13;19.30;99.90
5560;DHT22;2803;47.916;8.074;2023-08-24T05:20:40;19.70;99.90
5560;DHT22;2803;47.916;8.074;2023-08-24T05:23:06;20.00;99.90
5560;DHT22;2803;47.916;8.074;2023-08-24T05:25:33;20.60;99.90
5560;DHT22;2803;47.916;8.074;2023-08-24T05:28:01;21.50;99.90
5560;DHT22;2803;47.916;8.074;2023-08-24T05:30:28;21.80;99.90
5560;DHT22;2803;47.916;8.074;2023-08-24T05:32:55;22.10;99.90
5560;DHT22;2803;47.916;8.074;2023-08-24T05:35:22;22.20;99.90
5560;DHT22;2803;47.916;8.074;2023-08-24T05:37:49;22.20;99.90
5560;DHT22;2803;47.916;8.074;2023-08-24T05:40:15;22.40;99.90
5560;DHT22;2803;47.916;8.074;2023-08-24T05:42:42;22.80;99.90
5560;DHT22;2803;47.916;8.074;2023-08-24T05:45:10;22.80;99.90
5560;DHT22;2803;47.916;8.074;2023-08-24T05:47:38;22.60;99.90
5560;DHT22;2803;47.916;8.074;2023-08-24T05:50:05;22.50;99.90
5560;DHT22;2803;47.916;8.074;2023-08-24T05:52:32;22.50;99.90
5560;DHT22;2803;47.916;8.074;2023-08-24T05:54:59;22.40;99.90
5560;DHT22;2803;47.916;8.074;2023-08-24T05:57:26;22.10;99.90
5560;DHT22;2803;47.916;8.074;2023-08-24T05:59:52;22.10;99.90
5560;DHT22;2803;47.916;8.074;2023-08-24T06:02:20;22.00;99.90
5560;DHT22;2803;47.916;8.074;2023-08-24T06:04:47;22.00;99.90
5560;DHT22;2803;47.916;8.074;2023-08-24T06:07:16;22.00;99.90
5560;DHT22;2803;47.916;8.074;2023-08-24T06:09:42;21.40;99.90
5560;DHT22;2803;47.916;8.074;2023-08-24T06:12:10;21.40;99.90
5560;DHT22;2803;47.916;8.074;2023-08-24T06:14:36;21.70;99.90
5560;DHT22;2803;47.916;8.074;2023-08-24T06:17:03;22.00;99.90
5560;DHT22;2803;47.916;8.074;2023-08-24T06:19:31;22.50;99.90
5560;DHT22;2803;47.916;8.074;2023-08-24T06:21:58;22.70;99.90
5560;DHT22;2803;47.916;8.074;2023-08-24T06:24:25;22.60;99.90
5560;DHT22;2803;47.916;8.074;2023-08-24T06:26:51;22.90;99.90
5560;DHT22;2803;47.916;8.074;2023-08-24T06:29:18;22.90;99.90
5560;DHT22;2803;47.916;8.074;2023-08-24T06:31:45;22.80;99.90
5560;DHT22;2803;47.916;8.074;2023-08-24T06:34:11;23.00;99.90
5560;DHT22;2803;47.916;8.074;2023-08-24T06:36:39;23.20;99.90
5560;DHT22;2803;47.916;8.074;2023-08-24T06:39:06;23.10;99.90
5560;DHT22;2803;47.916;8.074;2023-08-24T06:41:33;23.40;99.90
5560;DHT22;2803;47.916;8.074;2023-08-24T06:44:01;23.60;99.90
5560;DHT22;2803;47.916;8.074;2023-08-24T06:46:29;23.80;99.90
5560;DHT22;2803;47.916;8.074;2023-08-24T06:48:56;23.70;99.90
5560;DHT22;2803;47.916;8.074;2023-08-24T06:51:23;24.00;99.90
5560;DHT22;2803;47.916;8.074;2023-08-24T06:53:50;24.30;99.90
5560;DHT22;2803;47.916;8.074;2023-08-24T06:56:17;24.40;99.90
5560;DHT22;2803;47.916;8.074;2023-08-24T06:58:44;24.80;99.90
5560;DHT22;2803;47.916;8.074;2023-08-24T07:01:11;24.90;99.90
5560;DHT22;2803;47.916;8.074;2023-08-24T07:03:38;24.90;99.90
5560;DHT22;2803;47.916;8.074;2023-08-24T07:06:05;25.30;99.90
5560;DHT22;2803;47.916;8.074;2023-08-24T07:08:32;25.20;99.90
5560;DHT22;2803;47.916;8.074;2023-08-24T07:11:01;25.60;99.90
5560;DHT22;2803;47.916;8.074;2023-08-24T07:13:27;25.80;99.90
5560;DHT22;2803;47.916;8.074;2023-08-24T07:15:54;26.00;99.90
5560;DHT22;2803;47.916;8.074;2023-08-24T07:18:22;25.60;99.90
5560;DHT22;2803;47.916;8.074;2023-08-24T07:20:48;26.00;99.90
5560;DHT22;2803;47.916;8.074;2023-08-24T07:23:15;26.30;99.90
5560;DHT22;2803;47.916;8.074;2023-08-24T07:25:42;26.50;99.90
5560;DHT22;2803;47.916;8.074;2023-08-24T07:28:10;26.60;99.90
5560;DHT22;2803;47.916;8.074;2023-08-24T07:30:36;26.70;99.90
5560;DHT22;2803;47.916;8.074;2023-08-24T07:33:03;26.80;99.90
5560;DHT22;2803;47.916;8.074;2023-08-24T07:35:30;26.90;99.90
5560;DHT22;2803;47.916;8.074;2023-08-24T07:37:57;27.00;99.90
5560;DHT22;2803;47.916;8.074;2023-08-24T07:40:24;27.10;99.90
5560;DHT22;2803;47.916;8.074;2023-08-24T07:42:52;27.10;99.90
5560;DHT22;2803;47.916;8.074;2023-08-24T07:45:22;27.30;99.90
5560;DHT22;2803;47.916;8.074;2023-08-24T07:47:49;27.50;99.90
5560;DHT22;2803;47.916;8.074;2023-08-24T07:50:16;27.60;99.90
5560;DHT22;2803;47.916;8.074;2023-08-24T07:52:42;27.90;99.90
5560;DHT22;2803;47.916;8.074;2023-08-24T07:55:09;28.10;99.90
5560;DHT22;2803;47.916;8.074;2023-08-24T07:57:36;28.20;99.90
5560;DHT22;2803;47.916;8.074;2023-08-24T08:00:04;28.40;99.90
5560;DHT22;2803;47.916;8.074;2023-08-24T08:02:32;28.50;99.90
5560;DHT22;2803;47.916;8.074;2023-08-24T08:04:59;28.60;99.90
5560;DHT22;2803;47.916;8.074;2023-08-24T08:07:26;28.80;99.90
5560;DHT22;2803;47.916;8.074;2023-08-24T08:09:53;28.90;99.90
5560;DHT22;2803;47.916;8.074;2023-08-24T08:12:19;29.00;99.90
5560;DHT22;2803;47.916;8.074;2023-08-24T08:14:46;28.80;99.90
5560;DHT22;2803;47.916;8.074;2023-08-24T08:17:13;29.00;99.90
5560;DHT22;2803;47.916;8.074;2023-08-24T08:19:40;29.20;99.90
5560;DHT22;2803;47.916;8.074;2023-08-24T08:22:07;29.40;99.90
5560;DHT22;2803;47.916;8.074;2023-08-24T08:24:34;29.60;99.90
5560;DHT22;2803;47.916;8.074;2023-08-24T08:27:00;29.60;99.90
5560;DHT22;2803;47.916;8.074;2023-08-24T08:29:28;28.70;99.90
5560;DHT22;2803;47.916;8.074;2023-08-24T08:31:55;28.10;99.90
5560;DHT22;2803;47.916;8.074;2023-08-24T08:34:21;27.90;99.90
5560;DHT22;2803;47.916;8.074;2023-08-24T08:36:49;28.10;99.90
5560;DHT22;2803;47.916;8.074;2023-08-24T08:39:16;28.20;99.90
5560;DHT22;2803;47.916;8.074;2023-08-24T08:41:44;28.20;99.90
5560;DHT22;2803;47.916;8.074;2023-08-24T08:44:13;28.00;99.90
5560;DHT22;2803;47.916;8.074;2023-08-24T08:46:41;28.00;99.90
5560;DHT22;2803;47.916;8.074;2023-08-24T08:49:09;28.10;99.90
5560;DHT22;2803;47.916;8.074;2023-08-24T08:51:36;28.40;99.90
5560;DHT22;2803;47.916;8.074;2023-08-24T08:54:04;28.30;99.90
5560;DHT22;2803;47.916;8.074;2023-08-24T08:56:31;28.20;99.90
5560;DHT22;2803;47.916;8.074;2023-08-24T08:58:59;28.40;99.90
5560;DHT22;2803;47.916;8.074;2023-08-24T09:01:26;28.40;99.90
5560;DHT22;2803;47.916;8.074;2023-08-24T09:03:53;28.50;99.90
5560;DHT22;2803;47.916;8.074;2023-08-24T09:06:21;28.50;99.90
5560;DHT22;2803;47.916;8.074;2023-08-24T09:08:48;28.60;99.90
5560;DHT22;2803;47.916;8.074;2023-08-24T09:11:17;28.70;99.90
5560;DHT22;2803;47.916;8.074;2023-08-24T09:13:44;28.90;99.90
5560;DHT22;2803;47.916;8.074;2023-08-24T09:16:11;29.30;99.90
5560;DHT22;2803;47.916;8.074;2023-08-24T09:18:43;29.20;99.90
5560;DHT22;2803;47.916;8.074;2023-08-24T09:21:11;29.30;99.90
5560;DHT22;2803;47.916;8.074;2023-08-24T09:23:42;29.30;99.90
5560;DHT22;2803;47.916;8.074;2023-08-24T09:26:09;29.50;99.90
5560;DHT22;2803;47.916;8.074;2023-08-24T09:28:37;29.60;99.90
5560;DHT22;2803;47.916;8.074;2023-08-24T09:31:05;29.70;99.90
5560;DHT22;2803;47.916;8.074;2023-08-24T09:33:31;29.70;99.90
5560;DHT22;2803;47.916;8.074;2023-08-24T09:35:59;30.10;99.90
5560;DHT22;2803;47.916;8.074;2023-08-24T09:38:28;30.40;99.90
5560;DHT22;2803;47.916;8.074;2023-08-24T09:40:55;30.90;99.90
5560;DHT22;2803;47.916;8.074;2023-08-24T09:43:23;31.00;99.90
5560;DHT22;2803;47.916;8.074;2023-08-24T09:45:53;31.20;99.90
5560;DHT22;2803;47.916;8.074;2023-08-24T09:48:20;31.50;99.90
5560;DHT22;2803;47.916;8.074;2023-08-24T09:50:49;31.10;99.90
5560;DHT22;2803;47.916;8.074;2023-08-24T09:53:18;31.30;99.90
5560;DHT22;2803;47.916;8.074;2023-08-24T09:55:49;31.20;99.90
5560;DHT22;2803;47.916;8.074;2023-08-24T09:58:19;31.20;99.90
5560;DHT22;2803;47.916;8.074;2023-08-24T10:00:46;31.50;99.90
5560;DHT22;2803;47.916;8.074;2023-08-24T10:03:17;31.80;99.90
5560;DHT22;2803;47.916;8.074;2023-08-24T10:05:48;32.20;99.90
5560;DHT22;2803;47.916;8.074;2023-08-24T10:08:18;32.70;99.90
5560;DHT22;2803;47.916;8.074;2023-08-24T10:10:46;32.40;99.90
5560;DHT22;2803;47.916;8.074;2023-08-24T10:13:20;32.90;99.90
5560;DHT22;2803;47.916;8.074;2023-08-24T10:15:49;33.00;99.90
5560;DHT22;2803;47.916;8.074;2023-08-24T10:18:18;33.40;99.90
5560;DHT22;2803;47.916;8.074;2023-08-24T10:20:47;34.10;99.90
5560;DHT22;2803;47.916;8.074;2023-08-24T10:23:16;34.30;99.90
5560;DHT22;2803;47.916;8.074;2023-08-24T10:25:46;34.60;99.90
5560;DHT22;2803;47.916;8.074;2023-08-24T10:28:13;34.70;99.90
5560;DHT22;2803;47.916;8.074;2023-08-24T10:30:41;35.40;99.90
5560;DHT22;2803;47.916;8.074;2023-08-24T10:33:10;36.10;99.40
5560;DHT22;2803;47.916;8.074;2023-08-24T10:35:38;35.80;98.00
5560;DHT22;2803;47.916;8.074;2023-08-24T10:38:06;35.90;97.80
5560;DHT22;2803;47.916;8.074;2023-08-24T10:40:33;36.20;97.30
5560;DHT22;2803;47.916;8.074;2023-08-24T10:43:02;36.10;96.20
5560;DHT22;2803;47.916;8.074;2023-08-24T10:48:27;36.60;96.00
5560;DHT22;2803;47.916;8.074;2023-08-24T10:51:18;36.80;95.20
5560;DHT22;2803;47.916;8.074;2023-08-24T10:53:46;36.40;95.50
5560;DHT22;2803;47.916;8.074;2023-08-24T10:56:14;35.60;95.80
5560;DHT22;2803;47.916;8.074;2023-08-24T10:58:42;35.40;96.50
5560;DHT22;2803;47.916;8.074;2023-08-24T11:01:14;35.00;96.90
5560;DHT22;2803;47.916;8.074;2023-08-24T11:03:42;35.00;97.60
5560;DHT22;2803;47.916;8.074;2023-08-24T11:06:22;34.70;97.60
5560;DHT22;2803;47.916;8.074;2023-08-24T11:09:05;34.50;98.00
5560;DHT22;2803;47.916;8.074;2023-08-24T11:11:35;34.40;98.50
5560;DHT22;2803;47.916;8.074;2023-08-24T11:14:16;34.40;98.10
5560;DHT22;2803;47.916;8.074;2023-08-24T11:16:45;34.30;98.40
5560;DHT22;2803;47.916;8.074;2023-08-24T11:19:13;34.30;98.80
5560;DHT22;2803;47.916;8.074;2023-08-24T11:21:43;34.90;98.40
5560;DHT22;2803;47.916;8.074;2023-08-24T11:24:12;34.90;97.70
5560;DHT22;2803;47.916;8.074;2023-08-24T11:26:41;35.10;97.70
5560;DHT22;2803;47.916;8.074;2023-08-24T11:29:08;35.30;96.80
5560;DHT22;2803;47.916;8.074;2023-08-24T11:31:35;35.20;96.80
5560;DHT22;2803;47.916;8.074;2023-08-24T11:34:02;35.60;96.30
5560;DHT22;2803;47.916;8.074;2023-08-24T11:36:29;35.70;96.40
5560;DHT22;2803;47.916;8.074;2023-08-24T11:38:58;35.40;96.40
5560;DHT22;2803;47.916;8.074;2023-08-24T11:41:26;35.60;96.10
5560;DHT22;2803;47.916;8.074;2023-08-24T11:43:59;36.00;96.20
5560;DHT22;2803;47.916;8.074;2023-08-24T11:46:28;36.30;95.60
5560;DHT22;2803;47.916;8.074;2023-08-24T11:48:56;36.60;94.80
5560;DHT22;2803;47.916;8.074;2023-08-24T11:51:22;37.30;93.70
5560;DHT22;2803;47.916;8.074;2023-08-24T11:53:49;36.70;93.70
5560;DHT22;2803;47.916;8.074;2023-08-24T11:56:17;36.60;94.20
5560;DHT22;2803;47.916;8.074;2023-08-24T11:58:48;36.90;94.30
5560;DHT22;2803;47.916;8.074;2023-08-24T12:01:16;37.90;94.00
5560;DHT22;2803;47.916;8.074;2023-08-24T12:03:43;38.00;92.80
5560;DHT22;2803;47.916;8.074;2023-08-24T12:06:11;38.00;92.90
5560;DHT22;2803;47.916;8.074;2023-08-24T12:08:39;38.30;92.60
5560;DHT22;2803;47.916;8.074;2023-08-24T12:11:11;38.50;92.40
5560;DHT22;2803;47.916;8.074;2023-08-24T12:13:43;38.90;91.40
5560;DHT22;2803;47.916;8.074;2023-08-24T12:16:10;38.00;91.30
5560;DHT22;2803;47.916;8.074;2023-08-24T12:18:47;38.00;92.10
5560;DHT22;2803;47.916;8.074;2023-08-24T12:21:14;38.10;91.90
5560;DHT22;2803;47.916;8.074;2023-08-24T12:23:41;38.00;91.50
5560;DHT22;2803;47.916;8.074;2023-08-24T12:26:07;37.80;92.20
5560;DHT22;2803;47.916;8.074;2023-08-24T12:28:34;38.20;91.60
5560;DHT22;2803;47.916;8.074;2023-08-24T12:31:02;38.30;91.30
5560;DHT22;2803;47.916;8.074;2023-08-24T12:33:30;38.30;90.40
5560;DHT22;2803;47.916;8.074;2023-08-24T12:35:58;38.10;90.60
5560;DHT22;2803;47.916;8.074;2023-08-24T12:38:25;38.00;90.90
5560;DHT22;2803;47.916;8.074;2023-08-24T12:40:53;37.70;91.20
5560;DHT22;2803;47.916;8.074;2023-08-24T12:43:20;37.60;90.90
5560;DHT22;2803;47.916;8.074;2023-08-24T12:45:47;38.00;89.80
5560;DHT22;2803;47.916;8.074;2023-08-24T12:48:15;38.00;90.30
5560;DHT22;2803;47.916;8.074;2023-08-24T12:50:48;38.00;90.30
5560;DHT22;2803;47.916;8.074;2023-08-24T12:53:14;38.10;88.50
5560;DHT22;2803;47.916;8.074;2023-08-24T12:55:41;38.30;90.20
5560;DHT22;2803;47.916;8.074;2023-08-24T12:58:08;38.30;88.10
5560;DHT22;2803;47.916;8.074;2023-08-24T13:00:35;38.60;88.00
5560;DHT22;2803;47.916;8.074;2023-08-24T13:03:02;39.10;86.80
5560;DHT22;2803;47.916;8.074;2023-08-24T13:05:30;39.20;87.00
5560;DHT22;2803;47.916;8.074;2023-08-24T13:07:57;39.30;85.60
5560;DHT22;2803;47.916;8.074;2023-08-24T13:10:23;39.10;85.10
5560;DHT22;2803;47.916;8.074;2023-08-24T13:12:50;39.30;84.20
5560;DHT22;2803;47.916;8.074;2023-08-24T13:15:17;39.40;82.70
5560;DHT22;2803;47.916;8.074;2023-08-24T13:17:44;39.30;81.30
5560;DHT22;2803;47.916;8.074;2023-08-24T13:20:10;39.80;83.50
5560;DHT22;2803;47.916;8.074;2023-08-24T13:22:38;40.00;80.60
5560;DHT22;2803;47.916;8.074;2023-08-24T13:25:06;40.10;80.60
5560;DHT22;2803;47.916;8.074;2023-08-24T13:27:32;40.20;78.60
5560;DHT22;2803;47.916;8.074;2023-08-24T13:30:00;40.50;75.40
5560;DHT22;2803;47.916;8.074;2023-08-24T13:32:27;40.30;74.20
5560;DHT22;2803;47.916;8.074;2023-08-24T13:34:54;40.00;74.10
5560;DHT22;2803;47.916;8.074;2023-08-24T13:37:22;40.30;73.90
5560;DHT22;2803;47.916;8.074;2023-08-24T13:39:51;40.40;77.20
5560;DHT22;2803;47.916;8.074;2023-08-24T13:42:17;40.50;74.00
5560;DHT22;2803;47.916;8.074;2023-08-24T13:44:44;40.80;69.90
5560;DHT22;2803;47.916;8.074;2023-08-24T13:47:12;40.70;67.20
5560;DHT22;2803;47.916;8.074;2023-08-24T13:49:39;40.70;71.60
5560;DHT22;2803;47.916;8.074;2023-08-24T13:52:06;40.60;65.30
5560;DHT22;2803;47.916;8.074;2023-08-24T13:54:32;40.20;64.70
5560;DHT22;2803;47.916;8.074;2023-08-24T13:57:01;40.30;70.60
5560;DHT22;2803;47.916;8.074;2023-08-24T13:59:27;40.10;64.30
5560;DHT22;2803;47.916;8.074;2023-08-24T14:01:54;40.00;64.70
5560;DHT22;2803;47.916;8.074;2023-08-24T14:04:21;40.30;63.70
5560;DHT22;2803;47.916;8.074;2023-08-24T14:06:48;40.70;62.40
5560;DHT22;2803;47.916;8.074;2023-08-24T14:09:14;40.80;64.50
5560;DHT22;2803;47.916;8.074;2023-08-24T14:11:41;40.80;62.10
5560;DHT22;2803;47.916;8.074;2023-08-24T14:14:09;41.00;62.20
5560;DHT22;2803;47.916;8.074;2023-08-24T14:16:36;41.10;63.20
5560;DHT22;2803;47.916;8.074;2023-08-24T14:19:03;40.90;63.80
5560;DHT22;2803;47.916;8.074;2023-08-24T14:21:30;40.20;62.20
5560;DHT22;2803;47.916;8.074;2023-08-24T14:23:58;40.10;60.60
5560;DHT22;2803;47.916;8.074;2023-08-24T14:26:24;40.20;61.10
5560;DHT22;2803;47.916;8.074;2023-08-24T14:28:53;40.40;63.00
5560;DHT22;2803;47.916;8.074;2023-08-24T14:31:22;40.50;63.90
5560;DHT22;2803;47.916;8.074;2023-08-24T14:33:49;40.70;67.00
5560;DHT22;2803;47.916;8.074;2023-08-24T14:36:16;40.90;66.20
5560;DHT22;2803;47.916;8.074;2023-08-24T14:38:43;41.10;64.40
5560;DHT22;2803;47.916;8.074;2023-08-24T14:41:11;41.00;65.00
5560;DHT22;2803;47.916;8.074;2023-08-24T14:43:38;40.90;65.50
5560;DHT22;2803;47.916;8.074;2023-08-24T14:46:05;41.10;67.10
5560;DHT22;2803;47.916;8.074;2023-08-24T14:48:33;41.00;66.90
5560;DHT22;2803;47.916;8.074;2023-08-24T14:51:01;40.80;68.70
5560;DHT22;2803;47.916;8.074;2023-08-24T14:53:28;40.40;67.10
5560;DHT22;2803;47.916;8.074;2023-08-24T14:55:55;40.20;70.50
5560;DHT22;2803;47.916;8.074;2023-08-24T14:58:23;40.10;68.50
5560;DHT22;2803;47.916;8.074;2023-08-24T15:00:50;39.00;68.70
5560;DHT22;2803;47.916;8.074;2023-08-24T15:03:17;39.20;69.50
5560;DHT22;2803;47.916;8.074;2023-08-24T15:05:55;39.30;68.60
5560;DHT22;2803;47.916;8.074;2023-08-24T15:08:22;39.50;68.90
5560;DHT22;2803;47.916;8.074;2023-08-24T15:10:49;39.30;68.80
5560;DHT22;2803;47.916;8.074;2023-08-24T15:13:16;39.20;69.80
5560;DHT22;2803;47.916;8.074;2023-08-24T15:15:42;39.20;69.20
5560;DHT22;2803;47.916;8.074;2023-08-24T15:18:09;39.60;70.30
5560;DHT22;2803;47.916;8.074;2023-08-24T15:20:36;39.70;69.50
5560;DHT22;2803;47.916;8.074;2023-08-24T15:23:05;39.00;70.00
5560;DHT22;2803;47.916;8.074;2023-08-24T15:25:32;38.00;70.60
5560;DHT22;2803;47.916;8.074;2023-08-24T15:27:59;37.60;72.10
5560;DHT22;2803;47.916;8.074;2023-08-24T15:30:25;37.00;72.00
5560;DHT22;2803;47.916;8.074;2023-08-24T15:32:52;36.70;72.70
5560;DHT22;2803;47.916;8.074;2023-08-24T15:35:18;36.60;74.50
5560;DHT22;2803;47.916;8.074;2023-08-24T15:37:45;36.10;73.30
5560;DHT22;2803;47.916;8.074;2023-08-24T15:40:13;35.70;75.20
5560;DHT22;2803;47.916;8.074;2023-08-24T15:42:40;35.70;74.90
5560;DHT22;2803;47.916;8.074;2023-08-24T15:45:07;35.50;75.20
5560;DHT22;2803;47.916;8.074;2023-08-24T15:47:34;35.40;75.60
5560;DHT22;2803;47.916;8.074;2023-08-24T15:50:00;35.30;76.00
5560;DHT22;2803;47.916;8.074;2023-08-24T15:52:27;35.30;75.70
5560;DHT22;2803;47.916;8.074;2023-08-24T15:54:54;34.80;77.90
5560;DHT22;2803;47.916;8.074;2023-08-24T15:57:22;35.30;79.10
5560;DHT22;2803;47.916;8.074;2023-08-24T15:59:49;35.20;77.30
5560;DHT22;2803;47.916;8.074;2023-08-24T16:02:16;35.00;77.30
5560;DHT22;2803;47.916;8.074;2023-08-24T16:04:42;34.90;78.80
5560;DHT22;2803;47.916;8.074;2023-08-24T16:07:09;35.10;79.70